createdAt,value
2022-12-12T00:00:25.387Z,100778.78
2022-12-12T00:03:28.482Z,100777.06
2022-12-12T00:06:31.757Z,100780.66
2022-12-12T00:09:36.736Z,100776.34
2022-12-12T00:12:39.751Z,100785.25
2022-12-12T00:15:42.846Z,100785.34
2022-12-12T00:18:46.220Z,100786.25
2022-12-12T00:21:49.856Z,100784.53
2022-12-12T00:24:54.274Z,100773.03
2022-12-12T00:27:57.361Z,100773.03
2022-12-12T00:31:00.507Z,100777.50
2022-12-12T00:34:03.819Z,100768.72
2022-12-12T00:37:06.746Z,100774.91
2022-12-12T00:40:13.593Z,100770.59
2022-12-12T00:43:16.839Z,100773.25
2022-12-12T00:46:22.302Z,100767.13
2022-12-12T00:49:25.368Z,100777.78
2022-12-12T00:52:28.343Z,100786.66
2022-12-12T00:55:32.755Z,100783.22
2022-12-12T00:58:36.181Z,100787.63
2022-12-12T01:01:39.297Z,100778.69
2022-12-12T01:04:42.303Z,100772.47
2022-12-12T01:07:45.317Z,100791.94
2022-12-12T01:10:49.678Z,100778.66
2022-12-12T01:13:54.450Z,100774.16
2022-12-12T01:16:57.494Z,100775.13
2022-12-12T01:20:00.420Z,100776.81
2022-12-12T01:23:03.434Z,100790.13
2022-12-12T01:26:10.049Z,100786.53
2022-12-12T01:29:13.015Z,100784.75
2022-12-12T01:32:15.967Z,100786.53
2022-12-12T01:35:19.266Z,100782.09
2022-12-12T01:38:22.588Z,100791.88
2022-12-12T01:41:27.014Z,100791.88
2022-12-12T01:44:43.406Z,100793.56
2022-12-12T01:47:47.778Z,100790.91
2022-12-12T01:50:51.929Z,100793.56
2022-12-12T01:54:01.149Z,100793.56
2022-12-12T01:57:09.649Z,100797.19
2022-12-12T02:00:13.229Z,100797.19
2022-12-12T02:03:20.221Z,100782.16
2022-12-12T02:06:27.707Z,100784.81
2022-12-12T02:09:31.058Z,100788.41
2022-12-12T02:12:35.682Z,100791.06
2022-12-12T02:15:43.738Z,100796.38
2022-12-12T02:18:55.990Z,100796.38
2022-12-12T02:22:04.230Z,100790.19
2022-12-12T02:25:29.398Z,100796.38
2022-12-12T02:28:59.739Z,100797.31
2022-12-12T02:32:09.762Z,100792.00
2022-12-12T02:35:20.201Z,100800.91
2022-12-12T02:38:29.229Z,100795.59
2022-12-12T02:41:39.090Z,100798.25
2022-12-12T02:44:50.075Z,100791.19
2022-12-12T02:48:00.030Z,100798.31
2022-12-12T02:51:07.758Z,100792.16
2022-12-12T02:54:16.064Z,100797.47
2022-12-12T02:57:20.522Z,100802.78
2022-12-12T03:00:23.636Z,100799.19
2022-12-12T03:03:57.333Z,100800.03
2022-12-12T03:07:26.578Z,100790.31
2022-12-12T03:10:46.186Z,100798.31
2022-12-12T03:13:57.490Z,100797.47
2022-12-12T03:17:06.682Z,100794.84
2022-12-12T03:20:17.393Z,100797.47
2022-12-12T03:23:25.898Z,100801.03
2022-12-12T03:26:33.207Z,100796.69
2022-12-12T03:29:41.811Z,100794.00
2022-12-12T03:32:52.049Z,100791.34
2022-12-12T03:36:01.003Z,100791.28
2022-12-12T03:39:10.063Z,100790.41
2022-12-12T03:42:20.080Z,100790.31
2022-12-12T03:45:28.649Z,100781.50
2022-12-12T03:48:34.041Z,100779.78
2022-12-12T03:51:44.911Z,100780.63
2022-12-12T03:54:52.988Z,100781.50
2022-12-12T03:58:00.545Z,100783.22
2022-12-12T04:01:07.853Z,100776.13
2022-12-12T04:04:16.392Z,100781.34
2022-12-12T04:07:26.330Z,100775.13
2022-12-12T04:10:51.021Z,100787.47
2022-12-12T04:14:05.575Z,100793.56
2022-12-12T04:17:12.451Z,100788.22
2022-12-12T04:20:43.046Z,100793.53
2022-12-12T04:24:00.573Z,100786.38
2022-12-12T04:27:09.798Z,100783.72
2022-12-12T04:30:15.223Z,100788.22
2022-12-12T04:33:22.115Z,100785.56
2022-12-12T04:36:26.673Z,100782.09
2022-12-12T04:39:32.774Z,100782.16
2022-12-12T04:42:39.888Z,100781.31
2022-12-12T04:45:47.215Z,100781.34
2022-12-12T04:48:54.990Z,100779.66
2022-12-12T04:52:03.954Z,100774.31
2022-12-12T04:55:14.032Z,100776.97
2022-12-12T04:58:17.666Z,100772.59
2022-12-12T05:01:27.651Z,100785.00
2022-12-12T05:04:35.130Z,100781.50
2022-12-12T05:07:41.026Z,100786.03
2022-12-12T05:10:47.516Z,100775.53
2022-12-12T05:13:51.425Z,100785.25
2022-12-12T05:17:00.019Z,100780.84
2022-12-12T05:20:03.092Z,100788.91
2022-12-12T05:23:06.722Z,100788.03
2022-12-12T05:26:12.098Z,100784.50
2022-12-12T05:29:15.208Z,100788.94
2022-12-12T05:32:18.212Z,100791.59
2022-12-12T05:35:21.406Z,100788.94
2022-12-12T05:38:24.405Z,100805.72
2022-12-12T05:41:28.749Z,100802.03
2022-12-12T05:44:32.066Z,100800.13
2022-12-12T05:47:35.316Z,100794.66
2022-12-12T05:50:38.277Z,100802.50
2022-12-12T05:53:43.124Z,100805.78
2022-12-12T05:56:47.802Z,100805.75
2022-12-12T05:59:50.850Z,100800.34
2022-12-12T06:02:54.506Z,100807.41
2022-12-12T06:05:57.518Z,100813.66
2022-12-12T06:09:00.794Z,100815.38
2022-12-12T06:12:05.734Z,100814.59
2022-12-12T06:15:09.969Z,100819.03
2022-12-12T06:18:13.313Z,100827.06
2022-12-12T06:21:16.290Z,100818.25
2022-12-12T06:24:19.321Z,100833.41
2022-12-12T06:27:23.767Z,100828.16
2022-12-12T06:30:26.825Z,100834.41
2022-12-12T06:33:31.854Z,100841.53
2022-12-12T06:36:35.185Z,100830.09
2022-12-12T06:39:38.910Z,100840.81
2022-12-12T06:42:48.161Z,100841.72
2022-12-12T06:45:52.075Z,100845.34
2022-12-12T06:48:57.178Z,100844.47
2022-12-12T06:52:00.073Z,100840.00
2022-12-12T06:55:03.014Z,100857.84
2022-12-12T06:58:07.426Z,100853.44
2022-12-12T07:01:12.767Z,100862.34
2022-12-12T07:04:15.843Z,100859.69
2022-12-12T07:07:18.811Z,100865.94
2022-12-12T07:10:21.918Z,100863.28
2022-12-12T07:13:26.285Z,100866.00
2022-12-12T07:16:29.273Z,100875.78
2022-12-12T07:19:32.216Z,100879.22
2022-12-12T07:22:35.245Z,100875.66
2022-12-12T07:25:38.958Z,100876.38
2022-12-12T07:28:43.426Z,100873.59
2022-12-12T07:31:46.479Z,100877.84
2022-12-12T07:34:49.385Z,100882.94
2022-12-12T07:37:52.546Z,100883.75
2022-12-12T07:40:55.798Z,100877.38
2022-12-12T07:44:00.448Z,100877.28
2022-12-12T07:47:03.523Z,100882.53
2022-12-12T07:50:07.571Z,100884.28
2022-12-12T07:53:10.607Z,100883.31
2022-12-12T07:56:15.475Z,100895.75
2022-12-12T07:59:20.263Z,100892.25
2022-12-12T08:02:23.338Z,100890.50
2022-12-12T08:05:26.426Z,100882.59
2022-12-12T08:08:29.463Z,100890.59
2022-12-12T08:11:32.584Z,100897.69
2022-12-12T08:14:38.356Z,100900.44
2022-12-12T08:17:41.730Z,100910.19
2022-12-12T08:20:44.787Z,100901.41
2022-12-12T08:23:47.798Z,100905.88
2022-12-12T08:26:52.091Z,100913.00
2022-12-12T08:29:56.763Z,100914.81
2022-12-12T08:33:02.380Z,100915.72
2022-12-12T08:36:14.364Z,100915.78
2022-12-12T08:39:17.782Z,100926.44
2022-12-12T08:42:21.138Z,100923.78
2022-12-12T08:45:25.586Z,100932.63
2022-12-12T08:48:28.762Z,100929.97
2022-12-12T08:51:31.832Z,100940.66
2022-12-12T08:54:34.825Z,100932.75
2022-12-12T08:57:39.161Z,100948.84
2022-12-12T09:00:43.530Z,100946.22
2022-12-12T09:03:48.960Z,100948.97
2022-12-12T09:06:51.973Z,100961.13
2022-12-12T09:09:55.409Z,100949.31
2022-12-12T09:12:58.470Z,100952.47
2022-12-12T09:16:03.237Z,100956.41
2022-12-12T09:19:06.463Z,100953.41
2022-12-12T09:22:09.538Z,100957.53
2022-12-12T09:25:12.794Z,100974.00
2022-12-12T09:28:18.873Z,100965.91
2022-12-12T09:31:23.462Z,100968.41
2022-12-12T09:34:26.499Z,100976.34
2022-12-12T09:37:31.095Z,100983.38
2022-12-12T09:40:39.066Z,100971.88
2022-12-12T09:43:49.390Z,100978.06
2022-12-12T09:46:57.753Z,100979.94
2022-12-12T09:50:05.291Z,100976.47
2022-12-12T09:53:13.172Z,100975.69
2022-12-12T09:56:22.683Z,100968.69
2022-12-12T09:59:34.257Z,100970.56
2022-12-12T10:03:06.293Z,100963.66
2022-12-12T10:09:48.198Z,100967.47
2022-12-12T10:12:52.303Z,100967.59
2022-12-12T10:15:59.375Z,100974.78
2022-12-12T10:19:11.376Z,100973.97
2022-12-12T10:22:24.356Z,100978.44
2022-12-12T10:25:40.417Z,100975.91
2022-12-12T10:28:43.459Z,100981.28
2022-12-12T10:31:56.965Z,100970.72
2022-12-12T10:35:18.853Z,100969.91
2022-12-12T10:38:46.084Z,100969.91
2022-12-12T10:41:53.975Z,100969.91
2022-12-12T10:45:29.556Z,100962.00
2022-12-12T10:48:32.628Z,100968.25
2022-12-12T10:51:37.082Z,100966.47
2022-12-12T10:54:45.938Z,100961.22
2022-12-12T10:57:48.954Z,100971.00
2022-12-12T11:00:52.115Z,100959.56
2022-12-12T11:03:57.198Z,100964.88
2022-12-12T11:07:01.890Z,100968.44
2022-12-12T11:10:21.431Z,100950.78
2022-12-12T11:13:24.393Z,100959.66
2022-12-12T11:16:29.369Z,100959.66
2022-12-12T11:19:39.480Z,100956.13
2022-12-12T11:22:43.980Z,100967.81
2022-12-12T11:25:47.884Z,100965.16
2022-12-12T11:28:56.481Z,100967.81
2022-12-12T11:32:00.771Z,100967.84
2022-12-12T11:35:07.679Z,100963.41
2022-12-12T11:38:21.142Z,100967.81
2022-12-12T11:41:25.346Z,100975.72
2022-12-12T11:44:33.459Z,100967.66
2022-12-12T11:47:41.873Z,100968.44
2022-12-12T11:50:46.489Z,100973.66
2022-12-12T11:53:50.837Z,100982.44
2022-12-12T11:56:58.763Z,100983.22
2022-12-12T12:00:14.411Z,100984.94
2022-12-12T12:03:28.143Z,100976.94
2022-12-12T12:06:41.293Z,100971.63
2022-12-12T12:09:55.559Z,100980.56
2022-12-12T12:13:13.134Z,100981.47
2022-12-12T12:16:28.084Z,100976.22
2022-12-12T12:19:38.234Z,100969.19
2022-12-12T12:22:55.155Z,100983.41
2022-12-12T12:26:06.269Z,100982.53
2022-12-12T12:29:22.890Z,100990.59
2022-12-12T12:32:35.473Z,100979.97
2022-12-12T12:35:48.459Z,100986.28
2022-12-12T12:38:58.129Z,100986.28
2022-12-12T12:42:19.676Z,100979.25
2022-12-12T12:45:29.401Z,100982.81
2022-12-12T12:48:38.487Z,100984.69
2022-12-12T12:51:50.207Z,100980.31
2022-12-12T12:54:58.118Z,100980.34
2022-12-12T12:58:07.003Z,100971.53
2022-12-12T13:01:17.628Z,100982.22
2022-12-12T13:04:25.461Z,100978.69
2022-12-12T13:07:40.775Z,100976.88
2022-12-12T13:10:48.574Z,100966.31
2022-12-12T13:13:56.086Z,100966.31
2022-12-12T13:17:06.436Z,100969.00
2022-12-12T13:20:17.152Z,100964.59
2022-12-12T13:23:37.310Z,100971.72
2022-12-12T13:26:45.967Z,100972.56
2022-12-12T13:29:54.843Z,100968.03
2022-12-12T13:33:13.681Z,100968.00
2022-12-12T13:36:27.573Z,100977.66
2022-12-12T13:39:34.071Z,100977.56
2022-12-12T13:42:55.364Z,100987.22
2022-12-12T13:45:59.986Z,100972.06
2022-12-12T13:49:25.653Z,100975.50
2022-12-12T13:52:31.471Z,100984.28
2022-12-12T13:55:34.607Z,100987.88
2022-12-12T13:58:37.549Z,100989.63
2022-12-12T14:01:42.038Z,100982.53
2022-12-12T14:04:45.434Z,100993.19
2022-12-12T14:07:50.558Z,100996.78
2022-12-12T14:11:00.722Z,100991.47
2022-12-12T14:14:21.603Z,100991.50
2022-12-12T14:17:29.120Z,100997.78
2022-12-12T14:20:34.861Z,100991.66
2022-12-12T14:23:42.121Z,100998.78
2022-12-12T14:26:50.039Z,100998.78
2022-12-12T14:29:53.033Z,101000.63
2022-12-12T14:33:07.610Z,101006.84
2022-12-12T14:36:30.346Z,101017.53
2022-12-12T14:39:57.545Z,101018.47
2022-12-12T14:43:20.213Z,101020.31
2022-12-12T14:46:25.396Z,101015.06
2022-12-12T14:49:29.747Z,101018.56
2022-12-12T14:52:32.706Z,101012.47
2022-12-12T14:55:35.726Z,101013.41
2022-12-12T14:58:42.218Z,101008.09
2022-12-12T15:01:47.775Z,101013.41
2022-12-12T15:05:00.956Z,101012.53
2022-12-12T15:08:19.773Z,101019.63
2022-12-12T15:11:26.111Z,101027.63
2022-12-12T15:14:29.211Z,101033.81
2022-12-12T15:17:34.242Z,101023.25
2022-12-12T15:20:39.018Z,101019.63
2022-12-12T15:23:42.924Z,101018.66
2022-12-12T15:26:46.647Z,101034.53
2022-12-12T15:29:49.943Z,101032.72
2022-12-12T15:32:52.950Z,101036.16
2022-12-12T15:36:02.740Z,101044.00
2022-12-12T15:39:15.620Z,101037.69
2022-12-12T15:42:19.323Z,101047.34
2022-12-12T15:45:33.462Z,101041.06
2022-12-12T15:48:36.446Z,101041.06
2022-12-12T15:51:40.780Z,101041.06
2022-12-12T15:54:48.766Z,101028.72
2022-12-12T15:57:53.641Z,101031.38
2022-12-12T16:01:05.647Z,101037.63
2022-12-12T16:04:25.242Z,101031.50
2022-12-12T16:07:36.392Z,101032.44
2022-12-12T16:10:53.022Z,101031.66
2022-12-12T16:13:56.000Z,101032.56
2022-12-12T16:17:02.813Z,101044.16
2022-12-12T16:20:08.207Z,101037.06
2022-12-12T16:23:23.460Z,101030.88
2022-12-12T16:26:26.858Z,101031.84
2022-12-12T16:29:29.848Z,101047.00
2022-12-12T16:32:34.742Z,101043.47
2022-12-12T16:35:37.671Z,101050.56
2022-12-12T16:38:43.287Z,101056.84
2022-12-12T16:41:46.488Z,101059.53
2022-12-12T16:44:49.669Z,101058.69
2022-12-12T16:47:52.571Z,101057.91
2022-12-12T16:50:59.435Z,101070.25
2022-12-12T16:54:03.774Z,101073.88
2022-12-12T16:57:06.802Z,101063.25
2022-12-12T17:00:12.032Z,101054.34
2022-12-12T17:03:17.103Z,101052.63
2022-12-12T17:06:20.059Z,101054.34
2022-12-12T17:09:29.865Z,101054.34
2022-12-12T17:12:33.145Z,101043.72
2022-12-12T17:15:36.280Z,101054.34
2022-12-12T17:18:39.218Z,101053.38
2022-12-12T17:21:42.203Z,101066.59
2022-12-12T17:24:46.528Z,101073.59
2022-12-12T17:27:49.546Z,101069.94
2022-12-12T17:30:52.519Z,101076.97
2022-12-12T17:33:55.671Z,101076.06
2022-12-12T17:36:58.694Z,101076.88
2022-12-12T17:40:03.487Z,101076.88
2022-12-12T17:43:06.537Z,101081.31
2022-12-12T17:46:14.637Z,101071.53
2022-12-12T17:49:17.930Z,101079.56
2022-12-12T17:52:21.060Z,101079.56
2022-12-12T17:55:53.397Z,101081.38
2022-12-12T17:58:49.453Z,101090.28
2022-12-12T18:01:53.747Z,101096.53
2022-12-12T18:04:56.779Z,101094.78
2022-12-12T18:07:59.853Z,101099.25
2022-12-12T18:11:07.537Z,101098.38
2022-12-12T18:14:15.344Z,101103.69
2022-12-12T18:17:18.385Z,101091.34
2022-12-12T18:20:22.782Z,101096.66
2022-12-12T18:23:27.375Z,101094.91
2022-12-12T18:26:31.694Z,101087.00
2022-12-12T18:29:34.741Z,101088.78
2022-12-12T18:32:37.721Z,101095.06
2022-12-12T18:35:40.725Z,101103.94
2022-12-12T18:38:47.582Z,101099.56
2022-12-12T18:41:53.033Z,101104.88
2022-12-12T18:44:56.230Z,101103.16
2022-12-12T18:47:59.727Z,101105.81
2022-12-12T18:51:06.347Z,101103.16
2022-12-12T18:54:14.281Z,101098.78
2022-12-12T18:57:19.869Z,101099.56
2022-12-12T19:00:22.899Z,101105.69
2022-12-12T19:03:25.825Z,101095.94
2022-12-12T19:06:33.778Z,101102.88
2022-12-12T19:09:36.938Z,101099.31
2022-12-12T19:12:41.379Z,101098.34
2022-12-12T19:15:44.351Z,101098.25
2022-12-12T19:18:47.969Z,101099.06
2022-12-12T19:21:52.301Z,101099.00
2022-12-12T19:24:55.336Z,101105.97
2022-12-12T19:28:00.850Z,101103.31
2022-12-12T19:31:08.476Z,101103.31
2022-12-12T19:34:13.205Z,101108.66
2022-12-12T19:37:16.178Z,101113.97
2022-12-12T19:40:19.610Z,101119.28
2022-12-12T19:43:23.977Z,101121.16
2022-12-12T19:46:29.905Z,101129.13
2022-12-12T19:49:33.201Z,101127.41
2022-12-12T19:52:36.217Z,101137.25
2022-12-12T19:55:39.772Z,101134.59
2022-12-12T19:58:44.656Z,101141.75
2022-12-12T20:01:49.422Z,101134.69
2022-12-12T20:04:52.450Z,101132.94
2022-12-12T20:07:55.457Z,101133.81
2022-12-12T20:11:04.227Z,101132.94
2022-12-12T20:14:14.422Z,101138.28
2022-12-12T20:17:17.511Z,101137.44
2022-12-12T20:20:20.491Z,101130.38
2022-12-12T20:23:23.566Z,101142.78
2022-12-12T20:26:28.990Z,101146.38
2022-12-12T20:29:33.847Z,101153.50
2022-12-12T20:32:36.913Z,101149.16
2022-12-12T20:35:41.833Z,101150.03
2022-12-12T20:38:45.732Z,101150.97
2022-12-12T20:41:49.706Z,101153.56
2022-12-12T20:44:54.166Z,101152.69
2022-12-12T20:47:57.194Z,101148.25
2022-12-12T20:51:01.050Z,101140.28
2022-12-12T20:54:05.999Z,101140.19
2022-12-12T20:57:08.985Z,101140.13
2022-12-12T21:00:14.866Z,101141.81
2022-12-12T21:03:18.158Z,101143.47
2022-12-12T21:06:23.338Z,101147.88
2022-12-12T21:09:26.979Z,101145.97
2022-12-12T21:12:30.191Z,101145.88
2022-12-12T21:15:34.601Z,101146.66
2022-12-12T21:18:38.419Z,101157.22
2022-12-12T21:21:42.600Z,101149.25
2022-12-12T21:24:45.869Z,101150.13
2022-12-12T21:27:48.847Z,101145.63
2022-12-12T21:30:53.332Z,101140.31
2022-12-12T21:33:57.098Z,101135.94
2022-12-12T21:37:00.510Z,101138.59
2022-12-12T21:40:03.823Z,101131.53
2022-12-12T21:43:06.779Z,101145.78
2022-12-12T21:46:14.627Z,101140.50
2022-12-12T21:49:26.625Z,101138.78
2022-12-12T21:52:29.859Z,101145.88
2022-12-12T21:55:32.906Z,101144.19
2022-12-12T21:58:37.729Z,101147.75
2022-12-12T22:01:42.324Z,101153.06
2022-12-12T22:04:45.447Z,101146.03
2022-12-12T22:07:48.636Z,101143.38
2022-12-12T22:10:54.481Z,101135.38
2022-12-12T22:13:57.698Z,101138.97
2022-12-12T22:17:02.883Z,101126.59
2022-12-12T22:20:06.408Z,101130.19
2022-12-12T22:23:09.602Z,101137.28
2022-12-12T22:26:16.997Z,101133.78
2022-12-12T22:29:21.254Z,101132.03
2022-12-12T22:32:25.671Z,101126.72
2022-12-12T22:35:28.718Z,101131.16
2022-12-12T22:38:37.747Z,101132.94
2022-12-12T22:41:41.249Z,101135.56
2022-12-12T22:44:44.726Z,101132.03
2022-12-12T22:47:49.151Z,101140.03
2022-12-12T22:50:52.158Z,101140.94
2022-12-12T22:53:56.574Z,101140.91
2022-12-12T22:56:59.683Z,101125.84
2022-12-12T23:00:02.849Z,101123.16
2022-12-12T23:03:07.410Z,101125.81
2022-12-12T23:06:13.265Z,101125.72
2022-12-12T23:09:18.907Z,101124.84
2022-12-12T23:12:24.679Z,101124.97
2022-12-12T23:15:27.671Z,101126.81
2022-12-12T23:18:32.903Z,101135.69
2022-12-12T23:21:37.463Z,101130.28
2022-12-12T23:24:40.448Z,101129.38
2022-12-12T23:27:43.433Z,101140.75
2022-12-12T23:30:46.419Z,101135.38
2022-12-12T23:33:54.495Z,101137.09
2022-12-12T23:36:58.213Z,101132.66
2022-12-12T23:40:02.223Z,101130.88
2022-12-12T23:43:05.182Z,101130.00
2022-12-12T23:46:27.935Z,101126.47
2022-12-12T23:49:32.494Z,101129.13
2022-12-12T23:52:35.516Z,101122.09
2022-12-12T23:55:38.625Z,101113.31
2022-12-12T23:58:41.634Z,101113.31
